Time;durP1;ratioP1;P1;durP2;ratioP2;P2;SDS_P1;SDS_P2;PMS_P1;PMS_P2;Temp;Humidity;BMP_temperature;BMP_pressure;BME280_temperature;BME280_humidity;BME280_pressure;Samples;Min_cycle;Max_cycle;Signal;HPM_P1;HPM_P2
2023/07/23 00:00:32;;;;;;;1.80;1.50;;;18.10;78.60;;;;;;5036158;28;20031;-80
2023/07/23 00:02:57;;;;;;;1.67;1.40;;;18.10;79.00;;;;;;5039390;28;20021;-77
2023/07/23 00:05:24;;;;;;;1.85;1.75;;;18.00;79.30;;;;;;5045434;28;20026;-76
2023/07/23 00:07:51;;;;;;;1.40;1.30;;;17.90;79.70;;;;;;5037394;28;20082;-78
2023/07/23 00:10:16;;;;;;;1.15;1.10;;;17.90;80.10;;;;;;5035788;28;20183;-78
2023/07/23 00:12:42;;;;;;;1.27;1.17;;;17.90;80.60;;;;;;5036085;28;20029;-78
2023/07/23 00:15:08;;;;;;;1.70;1.60;;;17.80;80.80;;;;;;5027921;28;20034;-79
2023/07/23 00:17:34;;;;;;;1.60;1.50;;;17.90;81.10;;;;;;5044221;28;20388;-77
2023/07/23 00:20:00;;;;;;;1.60;1.50;;;17.80;81.20;;;;;;5045937;28;20029;-79
2023/07/23 00:22:25;;;;;;;1.55;1.45;;;17.90;81.40;;;;;;5035565;28;20432;-77
2023/07/23 00:24:56;;;;;;;1.73;1.60;;;17.90;81.60;;;;;;5035457;28;20037;-78
2023/07/23 00:27:23;;;;;;;1.52;1.42;;;17.90;81.70;;;;;;5038770;28;20022;-79
2023/07/23 00:29:48;;;;;;;1.70;1.60;;;17.80;81.80;;;;;;5041961;28;20147;-78
2023/07/23 00:32:14;;;;;;;1.55;1.40;;;17.80;82.00;;;;;;5043349;28;20033;-78
2023/07/23 00:34:40;;;;;;;1.83;1.73;;;17.80;82.20;;;;;;5048701;28;20052;-78
2023/07/23 00:37:06;;;;;;;1.52;1.40;;;17.80;82.40;;;;;;5053519;28;20080;-79
2023/07/23 00:39:31;;;;;;;1.08;1.05;;;17.80;82.60;;;;;;5049492;28;20052;-78
2023/07/23 00:41:57;;;;;;;1.63;1.52;;;17.80;82.90;;;;;;5041284;28;20091;-78
2023/07/23 00:44:23;;;;;;;1.73;1.63;;;17.80;83.10;;;;;;5032920;28;20017;-78
2023/07/23 00:46:49;;;;;;;1.88;1.70;;;17.80;83.20;;;;;;5027135;28;20033;-78
2023/07/23 00:49:15;;;;;;;1.40;1.30;;;17.80;83.20;;;;;;5033607;28;20033;-78
2023/07/23 00:51:41;;;;;;;1.58;1.48;;;17.80;83.30;;;;;;5034681;28;20024;-78
2023/07/23 00:54:07;;;;;;;1.48;1.38;;;17.70;83.40;;;;;;5033076;28;20029;-78
2023/07/23 00:56:35;;;;;;;1.50;1.40;;;17.70;83.90;;;;;;5032313;28;20040;-77
2023/07/23 00:59:01;;;;;;;2.00;1.80;;;17.60;84.20;;;;;;5018370;28;20030;-78
2023/07/23 01:01:30;;;;;;;2.00;1.60;;;17.60;84.40;;;;;;5012941;28;20109;-79
2023/07/23 01:03:55;;;;;;;1.77;1.35;;;17.60;84.60;;;;;;5015009;28;20113;-79
2023/07/23 01:06:22;;;;;;;1.48;1.38;;;17.60;84.80;;;;;;5015529;28;20025;-78
2023/07/23 01:08:49;;;;;;;1.55;1.45;;;17.60;84.90;;;;;;5014368;28;20101;-77
2023/07/23 01:11:16;;;;;;;1.50;1.40;;;17.50;85.10;;;;;;5015195;28;20423;-78
2023/07/23 01:13:43;;;;;;;1.15;1.13;;;17.50;85.50;;;;;;5026818;28;20030;-77
2023/07/23 01:16:10;;;;;;;1.45;1.35;;;17.50;85.70;;;;;;5026759;28;20022;-79
2023/07/23 01:18:40;;;;;;;1.40;1.30;;;17.50;86.00;;;;;;5035460;28;20470;-78
2023/07/23 01:21:06;;;;;;;1.98;1.50;;;17.50;85.90;;;;;;5014592;28;20033;-78
2023/07/23 01:23:32;;;;;;;1.38;1.27;;;17.50;86.00;;;;;;5014337;28;20022;-78
2023/07/23 01:25:58;;;;;;;1.55;1.45;;;17.50;86.10;;;;;;5014018;28;20033;-78
2023/07/23 01:28:24;;;;;;;1.80;1.70;;;17.40;86.40;;;;;;5013208;28;21051;-78
2023/07/23 01:30:51;;;;;;;2.03;1.75;;;17.40;86.60;;;;;;5012121;28;20033;-77
2023/07/23 01:33:17;;;;;;;1.45;1.35;;;17.40;86.90;;;;;;5011849;28;20076;-77
2023/07/23 01:35:45;;;;;;;1.73;1.52;;;17.40;87.00;;;;;;5012552;28;20099;-78
2023/07/23 01:38:11;;;;;;;1.40;1.30;;;17.30;87.20;;;;;;5013001;28;20018;-78
2023/07/23 01:40:37;;;;;;;2.00;1.90;;;17.30;87.40;;;;;;5012779;28;20363;-78
2023/07/23 01:43:03;;;;;;;1.30;1.20;;;17.30;87.80;;;;;;5012828;28;20026;-77
2023/07/23 01:45:29;;;;;;;1.20;1.20;;;17.30;88.00;;;;;;5025857;28;20071;-77
2023/07/23 01:47:55;;;;;;;1.55;1.45;;;17.30;88.20;;;;;;5032338;28;20029;-77
2023/07/23 01:50:21;;;;;;;1.40;1.30;;;17.30;88.30;;;;;;5033627;28;20097;-77
2023/07/23 01:52:47;;;;;;;1.73;1.63;;;17.30;88.40;;;;;;5034543;28;20037;-79
2023/07/23 01:55:12;;;;;;;1.70;1.60;;;17.30;88.50;;;;;;5032671;28;20022;-77
2023/07/23 01:57:38;;;;;;;1.95;1.60;;;17.30;88.50;;;;;;5033270;28;20021;-78
2023/07/23 02:00:05;;;;;;;1.70;1.60;;;17.30;88.70;;;;;;5033096;28;20033;-77
2023/07/23 02:02:30;;;;;;;1.88;1.60;;;17.30;88.70;;;;;;5031695;28;20108;-78
2023/07/23 02:04:56;;;;;;;2.22;1.83;;;17.30;88.70;;;;;;5032298;28;20152;-77
2023/07/23 02:07:22;;;;;;;1.70;1.60;;;17.30;88.60;;;;;;5032779;28;20044;-78
2023/07/23 02:09:51;;;;;;;1.92;1.73;;;17.30;88.50;;;;;;5037508;28;20036;-78
2023/07/23 02:12:17;;;;;;;1.80;1.52;;;17.30;88.70;;;;;;5038703;28;20030;-78
2023/07/23 02:14:43;;;;;;;1.88;1.77;;;17.20;88.70;;;;;;5036986;28;20049;-78
2023/07/23 02:17:09;;;;;;;1.70;1.60;;;17.10;88.80;;;;;;5041540;28;20032;-78
2023/07/23 02:19:36;;;;;;;1.75;1.65;;;17.10;89.20;;;;;;5043021;28;20116;-77
2023/07/23 02:22:03;;;;;;;1.80;1.70;;;17.00;89.60;;;;;;5035866;28;20486;-78
2023/07/23 02:24:28;;;;;;;2.33;2.08;;;16.90;89.80;;;;;;5041297;28;20018;-77
2023/07/23 02:26:54;;;;;;;2.40;2.20;;;16.90;90.10;;;;;;5045753;28;20029;-78
2023/07/23 02:29:20;;;;;;;2.50;2.22;;;16.90;90.40;;;;;;5037828;28;20132;-77
2023/07/23 02:31:45;;;;;;;2.40;2.20;;;16.80;90.60;;;;;;5032493;28;20032;-77
2023/07/23 02:34:11;;;;;;;2.22;2.00;;;16.90;90.70;;;;;;5027280;28;20032;-77
2023/07/23 02:36:37;;;;;;;1.75;1.65;;;16.90;90.70;;;;;;5013050;28;20038;-78
2023/07/23 02:39:03;;;;;;;1.75;1.60;;;16.90;90.80;;;;;;5011926;28;20097;-78
2023/07/23 02:41:29;;;;;;;2.17;1.90;;;16.90;91.00;;;;;;5013853;28;20136;-78
2023/07/23 02:43:55;;;;;;;2.45;2.25;;;16.80;91.10;;;;;;5016027;28;20173;-79
2023/07/23 02:46:20;;;;;;;2.45;2.00;;;16.80;91.10;;;;;;5026552;28;20014;-77
2023/07/23 02:48:46;;;;;;;2.05;1.88;;;16.80;91.30;;;;;;5010870;28;20089;-77
2023/07/23 02:51:12;;;;;;;2.50;2.00;;;16.90;91.40;;;;;;5012327;28;20022;-76
2023/07/23 02:53:37;;;;;;;2.35;2.08;;;16.90;91.30;;;;;;5016783;28;20074;-76
2023/07/23 02:56:03;;;;;;;1.75;1.65;;;16.90;91.30;;;;;;5015242;28;20046;-77
2023/07/23 02:58:29;;;;;;;1.90;1.80;;;16.80;91.30;;;;;;5016474;28;20372;-76
2023/07/23 03:00:57;;;;;;;1.90;1.80;;;16.80;91.50;;;;;;5016995;28;20080;-76
2023/07/23 03:03:24;;;;;;;2.05;1.75;;;16.80;91.60;;;;;;5015479;28;20030;-76
2023/07/23 03:05:50;;;;;;;2.30;2.10;;;16.70;91.70;;;;;;5015251;28;20387;-77
2023/07/23 03:08:16;;;;;;;1.70;1.60;;;16.70;91.80;;;;;;5017341;28;20101;-76
2023/07/23 03:10:42;;;;;;;2.30;2.10;;;16.60;92.00;;;;;;5016673;28;20505;-76
2023/07/23 03:13:09;;;;;;;2.85;2.13;;;;;;;;;;5017398;28;20470;-77
2023/07/23 03:15:35;;;;;;;2.03;1.83;;;;;;;;;;5036411;28;20041;-77
2023/07/23 03:18:02;;;;;;;2.10;1.90;;;;;;;;;;5020358;28;20064;-77
2023/07/23 03:20:28;;;;;;;2.17;1.95;;;;;;;;;;5019539;28;20284;-76
2023/07/23 03:22:54;;;;;;;1.85;1.67;;;;;;;;;;5018685;28;20109;-76
2023/07/23 03:25:20;;;;;;;1.90;1.73;;;;;;;;;;5017396;28;20403;-77
2023/07/23 03:27:47;;;;;;;2.50;1.80;;;;;;;;;;5022016;28;20026;-77
2023/07/23 03:30:13;;;;;;;1.83;1.70;;;;;;;;;;5036528;28;20014;-77
2023/07/23 03:32:39;;;;;;;1.80;1.70;;;;;;;;;;5034720;28;20124;-76
2023/07/23 03:35:06;;;;;;;2.40;2.20;;;;;;;;;;5034991;28;20482;-77
2023/07/23 03:37:32;;;;;;;2.15;1.88;;;;;;;;;;5019923;28;20088;-76
2023/07/23 03:39:58;;;;;;;2.33;1.70;;;;;;;;;;5023982;28;20117;-77
2023/07/23 03:42:25;;;;;;;1.42;1.33;;;;;;;;;;5016228;28;20029;-79
2023/07/23 03:44:51;;;;;;;2.05;1.88;;;;;;;;;;5026203;28;20026;-79
2023/07/23 03:47:18;;;;;;;1.88;1.77;;;;;;;;;;5019022;28;20048;-78
2023/07/23 03:49:45;;;;;;;2.10;1.88;;;;;;;;;;5017580;28;20022;-78
2023/07/23 03:52:11;;;;;;;1.95;1.85;;;;;;;;;;5021752;28;20030;-78
2023/07/23 03:54:37;;;;;;;2.00;1.80;;;;;;;;;;5041253;28;20083;-78
2023/07/23 03:57:04;;;;;;;1.67;1.58;;;;;;;;;;5044633;28;20045;-79
2023/07/23 03:59:34;;;;;;;2.05;1.85;;;;;;;;;;5044848;28;20116;-77
2023/07/23 04:02:00;;;;;;;1.60;1.50;;;;;;;;;;5052815;28;20047;-77
2023/07/23 04:04:27;;;;;;;1.98;1.80;;;;;;;;;;5056035;28;20018;-78
2023/07/23 04:06:53;;;;;;;1.95;1.85;;;;;;;;;;5040526;28;20037;-77
2023/07/23 04:09:19;;;;;;;1.85;1.60;;;;;;;;;;5049034;28;20014;-78
2023/07/23 04:11:45;;;;;;;1.45;1.35;;;;;;;;;;5036027;28;20320;-78
2023/07/23 04:14:11;;;;;;;1.60;1.50;;;;;;;;;;5022037;28;20033;-78
2023/07/23 04:16:37;;;;;;;2.28;1.83;;;;;;;;;;5028889;28;20453;-78
2023/07/23 04:19:03;;;;;;;1.60;1.50;;;;;;;;;;5035021;28;20022;-78
2023/07/23 04:21:30;;;;;;;1.67;1.58;;;;;;;;;;5037159;28;20026;-78
2023/07/23 04:23:57;;;;;;;2.28;2.08;;;;;;;;;;5033126;28;20029;-78
2023/07/23 04:26:25;;;;;;;1.65;1.55;;;;;;;;;;5017306;28;20326;-79
2023/07/23 04:28:52;;;;;;;1.55;1.45;;;;;;;;;;5018240;28;20159;-79
2023/07/23 04:31:18;;;;;;;2.00;1.67;;;;;;;;;;5017879;28;20022;-79
2023/07/23 04:33:44;;;;;;;1.80;1.70;;;;;;;;;;5016612;28;20481;-79
2023/07/23 04:36:12;;;;;;;1.65;1.55;;;;;;;;;;5025309;28;20025;-79
2023/07/23 04:38:38;;;;;;;1.92;1.70;;;;;;;;;;5021684;28;20029;-79
2023/07/23 04:41:04;;;;;;;1.90;1.80;;;;;;;;;;5015604;28;20083;-80
2023/07/23 04:43:31;;;;;;;1.85;1.75;;;;;;;;;;5021244;28;20037;-80
2023/07/23 04:45:58;;;;;;;2.25;2.05;;;;;;;;;;5018146;28;20311;-79
2023/07/23 04:48:25;;;;;;;2.10;1.90;;;;;;;;;;5031870;28;20022;-80
2023/07/23 04:50:57;;;;;;;2.35;1.75;;;;;;;;;;5018852;28;20029;-79
2023/07/23 04:53:23;;;;;;;2.22;1.73;;;;;;;;;;5025554;28;20040;-79
2023/07/23 04:55:53;;;;;;;2.13;1.90;;;;;;;;;;5036229;28;20029;-80
2023/07/23 04:58:20;;;;;;;1.90;1.80;;;;;;;;;;5036150;28;20022;-80
2023/07/23 05:00:46;;;;;;;1.90;1.70;;;;;;;;;;5018565;28;20481;-79
2023/07/23 05:03:12;;;;;;;2.17;1.92;;;;;;;;;;5031242;28;20030;-79
2023/07/23 05:05:40;;;;;;;1.80;1.70;;;;;;;;;;5025445;28;20026;-79
2023/07/23 05:08:06;;;;;;;2.10;1.90;;;;;;;;;;5019071;28;20390;-78
2023/07/23 05:10:32;;;;;;;2.08;1.98;;;;;;;;;;5016583;28;20030;-79
2023/07/23 05:12:58;;;;;;;1.80;1.70;;;;;;;;;;5015323;28;20045;-78
2023/07/23 05:15:24;;;;;;;2.00;1.80;;;;;;;;;;5024011;28;20027;-79
2023/07/23 05:17:50;;;;;;;2.45;2.00;;;;;;;;;;5024831;28;20064;-78
2023/07/23 05:20:16;;;;;;;1.80;1.70;;;19.20;90.60;;;;;;5017582;28;20030;-79
2023/07/23 05:22:42;;;;;;;1.65;1.55;;;21.30;85.80;;;;;;5014801;28;20069;-79
2023/07/23 05:25:08;;;;;;;1.85;1.50;;;23.60;75.90;;;;;;5012972;28;20458;-80
2023/07/23 05:27:34;;;;;;;1.67;1.58;;;24.50;68.90;;;;;;5015273;28;20326;-79
2023/07/23 05:30:00;;;;;;;1.65;1.55;;;25.30;64.90;;;;;;5014987;28;20030;-79
2023/07/23 05:32:26;;;;;;;1.23;1.20;;;25.50;62.40;;;;;;5013901;28;20037;-80
2023/07/23 05:34:53;;;;;;;1.67;1.58;;;25.80;60.70;;;;;;5018147;28;20038;-80
2023/07/23 05:37:19;;;;;;;2.25;1.50;;;25.30;60.10;;;;;;5017650;28;20078;-79
2023/07/23 05:39:45;;;;;;;1.40;1.30;;;24.30;61.40;;;;;;5017412;28;20034;-79
2023/07/23 05:42:11;;;;;;;1.70;1.60;;;23.90;64.00;;;;;;5020248;28;20382;-79
2023/07/23 05:44:36;;;;;;;2.05;1.60;;;25.30;63.10;;;;;;5029885;28;20398;-79
2023/07/23 05:47:03;;;;;;;1.60;1.50;;;;;;;;;;5034557;28;20029;-79
2023/07/23 05:49:28;;;;;;;1.45;1.35;;;29.30;54.10;;;;;;5031318;28;20053;-80
2023/07/23 05:51:54;;;;;;;1.55;1.45;;;29.70;53.50;;;;;;5017993;28;20033;-79
2023/07/23 05:54:20;;;;;;;1.35;1.25;;;30.60;51.70;;;;;;5017883;28;20037;-80
2023/07/23 05:56:45;;;;;;;1.23;1.23;;;31.40;50.00;;;;;;5028702;28;20184;-80
2023/07/23 05:59:11;;;;;;;1.20;1.20;;;32.00;48.10;;;;;;5015508;28;20110;-81
2023/07/23 06:01:37;;;;;;;1.27;1.17;;;32.50;47.10;;;;;;5016924;28;20026;-80
2023/07/23 06:04:03;;;;;;;1.30;1.30;;;32.80;46.40;;;;;;5027947;28;20040;-80
2023/07/23 06:06:28;;;;;;;1.10;1.10;;;33.10;45.30;;;;;;5017999;28;20036;-80
2023/07/23 06:08:56;;;;;;;1.20;1.20;;;33.30;45.40;;;;;;5019046;28;20033;-80
2023/07/23 06:11:22;;;;;;;1.35;1.35;;;33.50;45.10;;;;;;5021894;28;20044;-79
2023/07/23 06:13:48;;;;;;;1.52;1.42;;;33.40;43.80;;;;;;5023197;28;20026;-78
2023/07/23 06:16:14;;;;;;;1.30;1.30;;;32.70;44.90;;;;;;5042200;28;20040;-80
2023/07/23 06:18:39;;;;;;;1.42;1.40;;;32.80;44.90;;;;;;5036684;28;20219;-81
2023/07/23 06:21:05;;;;;;;1.70;1.60;;;33.10;44.80;;;;;;5045092;28;20037;-80
2023/07/23 06:23:31;;;;;;;1.50;1.40;;;33.30;44.30;;;;;;5050792;28;20029;-81
2023/07/23 06:25:57;;;;;;;1.60;1.50;;;33.60;44.00;;;;;;5031216;28;20065;-80
2023/07/23 06:28:23;;;;;;;1.58;1.48;;;33.80;43.80;;;;;;5012580;28;20018;-79
2023/07/23 06:30:55;;;;;;;1.30;1.30;;;33.90;43.60;;;;;;5028986;28;20316;-78
2023/07/23 06:33:21;;;;;;;1.55;1.45;;;34.20;43.40;;;;;;5012604;28;20422;-80
2023/07/23 06:35:47;;;;;;;1.35;1.35;;;34.50;42.70;;;;;;5018620;28;20064;-79
2023/07/23 06:38:14;;;;;;;1.30;1.30;;;34.60;42.20;;;;;;5028588;28;20047;-78
2023/07/23 06:40:52;;;;;;;1.30;1.30;;;34.70;42.40;;;;;;5012314;28;20025;-80
2023/07/23 06:43:19;;;;;;;1.60;1.50;;;34.70;42.20;;;;;;5014032;28;20022;-80
2023/07/23 06:45:46;;;;;;;1.30;1.20;;;34.80;42.00;;;;;;5013327;28;20026;-79
2023/07/23 06:48:12;;;;;;;1.13;1.13;;;34.90;41.50;;;;;;5017863;28;20498;-78
2023/07/23 06:50:38;;;;;;;0.95;0.95;;;34.70;41.70;;;;;;5017222;28;20030;-79
2023/07/23 06:53:04;;;;;;;1.10;1.10;;;34.90;41.60;;;;;;5025555;28;20026;-79
2023/07/23 06:55:35;;;;;;;1.30;1.30;;;34.90;41.30;;;;;;5022896;28;20437;-79
2023/07/23 06:58:01;;;;;;;;;;;34.90;41.30;;;;;;5013142;28;20116;-81
2023/07/23 07:00:27;;;;;;;1.35;1.35;;;34.20;40.80;;;;;;5032817;28;20435;-80
2023/07/23 07:02:52;;;;;;;1.35;1.15;;;32.80;41.90;;;;;;5031563;28;20025;-77
2023/07/23 07:05:18;;;;;;;1.40;1.35;;;31.50;43.70;;;;;;5016533;28;20018;-78
2023/07/23 07:07:44;;;;;;;1.00;1.00;;;30.90;44.40;;;;;;5014130;28;20040;-79
2023/07/23 07:10:09;;;;;;;1.35;1.35;;;31.00;45.70;;;;;;5013913;28;20026;-79
2023/07/23 07:12:35;;;;;;;1.20;1.20;;;;;;;;;;5031428;28;20041;-79
2023/07/23 07:15:01;;;;;;;1.20;1.20;;;33.40;42.60;;;;;;5026312;28;20100;-77
2023/07/23 07:17:27;;;;;;;1.30;1.20;;;32.80;42.20;;;;;;5018189;28;20498;-78
2023/07/23 07:19:53;;;;;;;1.30;1.30;;;31.20;43.40;;;;;;5029474;28;20022;-78
2023/07/23 07:22:18;;;;;;;1.42;1.35;;;29.50;45.50;;;;;;5026390;28;20104;-78
2023/07/23 07:24:44;;;;;;;2.00;1.90;;;28.20;47.30;;;;;;5020174;28;20372;-79
2023/07/23 07:27:10;;;;;;;1.58;1.48;;;27.20;48.70;;;;;;5040218;28;20025;-80
2023/07/23 07:29:39;;;;;;;2.15;2.05;;;26.40;50.00;;;;;;5021446;28;20108;-78
2023/07/23 07:32:09;;;;;;;2.10;2.00;;;25.90;51.30;;;;;;5036622;28;20037;-79
2023/07/23 07:34:34;;;;;;;1.90;1.80;;;25.50;52.10;;;;;;5037388;28;20029;-80
2023/07/23 07:37:00;;;;;;;2.25;1.90;;;25.40;52.60;;;;;;5036433;28;20099;-80
2023/07/23 07:39:26;;;;;;;2.67;2.08;;;25.20;52.90;;;;;;5024916;28;20121;-80
2023/07/23 07:41:53;;;;;;;1.80;1.70;;;25.00;53.00;;;;;;5031060;28;20119;-80
2023/07/23 07:44:20;;;;;;;2.03;1.92;;;24.90;53.20;;;;;;5038496;28;20017;-80
2023/07/23 07:46:45;;;;;;;2.17;2.08;;;24.70;53.60;;;;;;5033969;28;20356;-80
2023/07/23 07:49:11;;;;;;;2.00;1.90;;;24.50;54.20;;;;;;5036253;28;20040;-80
2023/07/23 07:51:38;;;;;;;2.22;2.13;;;24.40;54.40;;;;;;5040815;28;20029;-79
2023/07/23 07:54:04;;;;;;;2.22;2.00;;;24.40;54.50;;;;;;5038530;28;20029;-79
2023/07/23 07:56:30;;;;;;;2.30;2.10;;;24.40;54.50;;;;;;5032107;28;20418;-80
2023/07/23 07:58:56;;;;;;;2.50;2.30;;;24.40;54.40;;;;;;5034818;28;20029;-80
2023/07/23 08:01:22;;;;;;;2.60;2.40;;;24.40;54.20;;;;;;5033629;28;20026;-79
2023/07/23 08:03:48;;;;;;;2.40;2.20;;;24.40;54.00;;;;;;5023936;28;20109;-79
2023/07/23 08:06:15;;;;;;;1.98;1.88;;;24.50;53.20;;;;;;5024903;28;20088;-80
2023/07/23 08:08:42;;;;;;;2.15;1.95;;;24.50;52.20;;;;;;5021272;28;20041;-81
2023/07/23 08:11:09;;;;;;;1.98;1.80;;;24.60;52.20;;;;;;5029630;28;20084;-79
2023/07/23 08:13:38;;;;;;;2.33;2.13;;;24.60;52.00;;;;;;5029688;28;20044;-79
2023/07/23 08:16:05;;;;;;;2.08;1.98;;;24.70;51.40;;;;;;5020485;28;20049;-80
2023/07/23 08:18:31;;;;;;;2.00;1.90;;;24.80;51.20;;;;;;5040941;28;20034;-80
2023/07/23 08:20:57;;;;;;;2.30;2.10;;;24.90;51.20;;;;;;5020535;28;20110;-79
2023/07/23 08:23:27;;;;;;;2.30;2.10;;;25.00;51.10;;;;;;5017586;28;20479;-79
2023/07/23 08:25:56;;;;;;;2.42;2.15;;;25.00;50.90;;;;;;5001267;28;20336;-80
2023/07/23 08:28:28;;;;;;;2.30;2.10;;;25.10;50.70;;;;;;5022509;28;20032;-80
2023/07/23 08:30:56;;;;;;;2.55;2.30;;;25.30;50.40;;;;;;5030434;28;20066;-77
2023/07/23 08:33:24;;;;;;;1.85;1.75;;;25.50;50.10;;;;;;5016732;28;20038;-80
2023/07/23 08:35:50;;;;;;;1.92;1.75;;;25.80;49.80;;;;;;5021487;28;20037;-81
2023/07/23 08:38:16;;;;;;;2.10;1.98;;;26.00;49.20;;;;;;5032935;28;20034;-79
2023/07/23 08:40:43;;;;;;;1.95;1.85;;;26.10;48.70;;;;;;5016928;28;20061;-80
2023/07/23 08:43:44;;;;;;;2.25;2.00;;;26.30;48.30;;;;;;5018628;28;20021;-78
2023/07/23 08:46:27;;;;;;;1.92;1.83;;;26.40;48.30;;;;;;5004300;28;20038;-81
2023/07/23 08:48:58;;;;;;;2.35;2.20;;;26.50;48.30;;;;;;5035853;28;20036;-80
2023/07/23 08:51:25;;;;;;;2.67;2.20;;;26.50;48.10;;;;;;5035068;28;20083;-80
2023/07/23 08:53:52;;;;;;;2.25;2.08;;;26.50;48.20;;;;;;5033092;28;20056;-79
2023/07/23 08:56:18;;;;;;;2.53;2.33;;;26.50;48.20;;;;;;5028494;28;20042;-80
2023/07/23 08:58:45;;;;;;;2.33;2.13;;;26.60;48.00;;;;;;5017562;28;20034;-78
2023/07/23 09:01:15;;;;;;;2.50;2.30;;;26.70;47.10;;;;;;5024431;28;20109;-79
2023/07/23 09:03:41;;;;;;;2.40;1.90;;;27.00;46.70;;;;;;5026841;28;20033;-80
2023/07/23 09:06:08;;;;;;;1.98;1.88;;;27.40;46.20;;;;;;5031697;28;20026;-78
2023/07/23 09:08:34;;;;;;;2.08;1.98;;;27.70;46.10;;;;;;5018195;28;20253;-80
2023/07/23 09:11:04;;;;;;;3.70;2.50;;;27.80;46.10;;;;;;5020487;28;20038;-78
2023/07/23 09:13:35;;;;;;;2.55;2.38;;;27.80;45.00;;;;;;5020937;28;20030;-81
2023/07/23 09:16:02;;;;;;;3.50;2.50;;;27.70;44.90;;;;;;5027116;28;20033;-79
2023/07/23 09:18:27;;;;;;;2.95;2.65;;;27.90;44.90;;;;;;5030234;28;20036;-78
2023/07/23 09:20:53;;;;;;;3.30;2.90;;;28.10;44.90;;;;;;5024835;28;20025;-78
2023/07/23 09:23:19;;;;;;;4.72;3.03;;;28.20;43.80;;;;;;5030345;28;20033;-78
2023/07/23 09:25:46;;;;;;;2.70;2.50;;;28.20;44.10;;;;;;5019576;28;20029;-80
2023/07/23 09:28:22;;;;;;;3.33;2.45;;;28.10;44.30;;;;;;5017323;28;20029;-79
2023/07/23 09:30:48;;;;;;;2.33;2.13;;;28.00;44.00;;;;;;5016166;28;20026;-78
2023/07/23 09:33:13;;;;;;;2.60;2.40;;;27.90;44.60;;;;;;5017529;28;20026;-80
2023/07/23 09:35:41;;;;;;;2.30;2.10;;;27.80;44.40;;;;;;5028900;28;20036;-80
2023/07/23 09:38:12;;;;;;;2.78;2.55;;;27.80;44.50;;;;;;5031424;28;20483;-79
2023/07/23 09:40:40;;;;;;;4.07;2.85;;;28.00;44.30;;;;;;5030879;28;20022;-79
2023/07/23 09:43:06;;;;;;;2.30;2.13;;;28.00;44.40;;;;;;5031189;28;20029;-79
2023/07/23 09:45:37;;;;;;;2.60;2.40;;;28.10;44.10;;;;;;5025609;28;20029;-78
2023/07/23 09:48:03;;;;;;;2.53;2.33;;;28.30;44.20;;;;;;5017369;28;20031;-79
2023/07/23 09:50:30;;;;;;;2.92;2.65;;;28.30;44.20;;;;;;5023479;28;20460;-78
2023/07/23 09:52:56;;;;;;;2.70;2.50;;;28.20;44.10;;;;;;5036183;28;20401;-78
2023/07/23 09:55:23;;;;;;;3.20;2.90;;;28.30;43.30;;;;;;5038899;28;20025;-80
2023/07/23 09:57:52;;;;;;;2.53;2.33;;;28.50;42.80;;;;;;5016996;28;20029;-79
2023/07/23 10:00:19;;;;;;;3.00;2.80;;;28.60;42.60;;;;;;5022765;28;20026;-79
2023/07/23 10:02:47;;;;;;;3.20;2.90;;;28.50;42.80;;;;;;5017354;28;20068;-78
2023/07/23 10:05:17;;;;;;;3.05;2.80;;;28.60;42.10;;;;;;5029870;28;20029;-79
2023/07/23 10:07:46;;;;;;;3.67;3.05;;;28.50;43.00;;;;;;5021431;28;20045;-79
2023/07/23 10:10:15;;;;;;;3.17;2.88;;;;;;;;;;5023361;28;20048;-80
2023/07/23 10:12:43;;;;;;;3.10;2.80;;;;;;;;;;5035510;28;20057;-78
2023/07/23 10:15:09;;;;;;;3.25;2.95;;;28.40;42.30;;;;;;5029007;28;20033;-78
2023/07/23 10:17:44;;;;;;;3.10;2.80;;;28.40;42.90;;;;;;5026305;28;20033;-78
2023/07/23 10:20:13;;;;;;;3.03;2.78;;;28.70;42.30;;;;;;5018896;28;20105;-78
2023/07/23 10:22:39;;;;;;;3.10;2.78;;;29.10;42.90;;;;;;5019326;28;20014;-78
2023/07/23 10:25:25;;;;;;;4.07;3.65;;;29.40;41.50;;;;;;5031820;28;20497;-80
2023/07/23 10:27:57;;;;;;;3.30;3.00;;;29.70;40.80;;;;;;5031264;28;20026;-78
2023/07/23 10:30:23;;;;;;;3.28;2.97;;;30.00;40.80;;;;;;5024767;28;20033;-79
2023/07/23 10:33:09;;;;;;;3.75;3.10;;;30.10;40.60;;;;;;5039284;28;20077;-79
2023/07/23 10:35:53;;;;;;;3.80;3.22;;;30.20;40.30;;;;;;5021168;28;20045;-80
2023/07/23 10:38:20;;;;;;;3.20;2.90;;;30.50;39.80;;;;;;4996904;28;20034;-80
2023/07/23 10:40:47;;;;;;;3.40;3.20;;;30.60;39.90;;;;;;5006374;28;20021;-80
2023/07/23 10:43:13;;;;;;;3.60;3.30;;;30.70;40.10;;;;;;5033998;28;20042;-78
2023/07/23 10:45:46;;;;;;;2.95;2.65;;;30.80;39.50;;;;;;5029479;28;20123;-78
2023/07/23 10:48:17;;;;;;;3.08;2.83;;;30.90;39.60;;;;;;5039144;28;20380;-78
2023/07/23 10:51:00;;;;;;;3.67;3.30;;;31.00;39.40;;;;;;5026797;28;20022;-79
2023/07/23 10:53:30;;;;;;;4.10;3.70;;;30.50;39.20;;;;;;5030481;28;20445;-77
2023/07/23 10:55:59;;;;;;;5.63;4.70;;;30.00;39.70;;;;;;5038238;28;20021;-77
2023/07/23 10:58:26;;;;;;;8.38;3.88;;;29.50;40.40;;;;;;5039615;28;20347;-79
2023/07/23 11:00:58;;;;;;;4.40;3.97;;;29.20;41.00;;;;;;5024217;28;20055;-79
2023/07/23 11:03:24;;;;;;;;;;;29.00;41.40;;;;;;5033859;28;20013;-78
2023/07/23 11:05:52;;;;;;;4.53;4.00;;;28.70;40.70;;;;;;5042216;28;19995;-79
2023/07/23 11:08:23;;;;;;;7.45;5.07;;;28.90;41.10;;;;;;5033543;28;20032;-78
2023/07/23 11:10:55;;;;;;;;;;;29.30;40.30;;;;;;5032815;28;20080;-77
2023/07/23 11:13:31;;;;;;;4.85;4.07;;;29.40;40.10;;;;;;5024922;28;19948;-79
2023/07/23 11:15:56;;;;;;;5.00;4.50;;;29.20;40.70;;;;;;5048605;28;20021;-78
2023/07/23 11:18:23;;;;;;;4.40;4.00;;;29.40;40.80;;;;;;5054207;28;20042;-80
2023/07/23 11:20:51;;;;;;;5.32;4.10;;;29.70;40.90;;;;;;5052064;28;20021;-78
2023/07/23 11:23:20;;;;;;;4.00;3.70;;;29.90;40.60;;;;;;5056298;28;20078;-79
2023/07/23 11:25:49;;;;;;;5.00;4.50;;;30.10;40.60;;;;;;5045018;28;20014;-79
2023/07/23 11:28:20;;;;;;;5.00;4.50;;;30.30;39.80;;;;;;5042432;28;20084;-78
2023/07/23 11:30:49;;;;;;;5.13;4.63;;;29.90;40.00;;;;;;5028021;28;20108;-79
2023/07/23 11:33:16;;;;;;;6.72;5.15;;;29.50;41.40;;;;;;5043620;28;20037;-80
2023/07/23 11:35:43;;;;;;;5.35;4.82;;;29.30;41.50;;;;;;5041854;28;20064;-80
2023/07/23 11:38:08;;;;;;;4.97;4.43;;;29.60;41.30;;;;;;5028574;28;20386;-80
2023/07/23 11:40:35;;;;;;;5.32;4.80;;;29.90;41.10;;;;;;5033175;28;20104;-80
2023/07/23 11:43:05;;;;;;;7.80;5.50;;;30.10;40.10;;;;;;5038532;28;20044;-79
2023/07/23 11:45:31;;;;;;;5.18;4.68;;;30.20;40.00;;;;;;5031898;28;20029;-80
2023/07/23 11:47:56;;;;;;;5.15;4.30;;;30.20;39.80;;;;;;5040733;28;20098;-80
2023/07/23 11:50:24;;;;;;;4.97;4.47;;;30.20;39.60;;;;;;5040616;28;20029;-80
2023/07/23 11:52:51;;;;;;;5.43;4.93;;;30.40;40.00;;;;;;5031696;28;20101;-79
2023/07/23 11:55:25;;;;;;;6.68;5.35;;;30.30;39.80;;;;;;5029258;28;20034;-79
2023/07/23 11:57:55;;;;;;;7.78;5.60;;;30.20;40.00;;;;;;5028374;28;20049;-79
2023/07/23 12:00:30;;;;;;;6.30;5.18;;;30.40;39.50;;;;;;5037238;28;20029;-79
2023/07/23 12:02:59;;;;;;;6.13;5.30;;;30.70;39.50;;;;;;5040958;28;20025;-79
2023/07/23 12:05:25;;;;;;;5.85;5.25;;;31.00;39.00;;;;;;5039603;28;20055;-79
2023/07/23 12:07:52;;;;;;;6.20;5.30;;;31.20;39.00;;;;;;5038972;28;20067;-79
2023/07/23 12:10:18;;;;;;;6.75;5.80;;;31.50;38.60;;;;;;5030445;28;20037;-79
2023/07/23 12:12:47;;;;;;;6.63;5.93;;;31.90;38.00;;;;;;5036020;28;20030;-78
2023/07/23 12:15:17;;;;;;;6.95;5.80;;;32.20;37.90;;;;;;5029969;28;20447;-78
2023/07/23 12:17:43;;;;;;;6.78;5.47;;;32.30;37.90;;;;;;5019549;28;20030;-80
2023/07/23 12:20:23;;;;;;;7.30;6.57;;;32.10;37.50;;;;;;5018251;28;20026;-79
2023/07/23 12:22:53;;;;;;;6.90;5.93;;;31.70;37.50;;;;;;5016343;28;20052;-79
2023/07/23 12:25:19;;;;;;;6.60;5.68;;;31.40;38.20;;;;;;5023441;28;20022;-78
2023/07/23 12:27:45;;;;;;;5.25;4.75;;;31.30;38.80;;;;;;5022947;28;20152;-77
2023/07/23 12:30:11;;;;;;;8.73;6.18;;;31.30;38.80;;;;;;5022019;28;20026;-78
2023/07/23 12:32:37;;;;;;;6.63;5.90;;;31.30;38.60;;;;;;5028177;28;20021;-77
2023/07/23 12:35:03;;;;;;;6.70;5.85;;;31.20;38.80;;;;;;5023156;28;20038;-77
2023/07/23 12:37:31;;;;;;;6.03;5.28;;;31.20;38.50;;;;;;5028244;28;20033;-78
2023/07/23 12:39:57;;;;;;;6.90;6.07;;;31.20;38.50;;;;;;5017651;28;20076;-78
2023/07/23 12:42:23;;;;;;;8.27;6.05;;;31.30;38.60;;;;;;5017871;28;20034;-78
2023/07/23 12:44:49;;;;;;;6.70;6.03;;;31.50;38.30;;;;;;5027725;28;20026;-78
2023/07/23 12:47:15;;;;;;;6.28;5.38;;;31.60;38.20;;;;;;5026342;28;20055;-78
2023/07/23 12:49:41;;;;;;;6.10;5.38;;;31.60;38.40;;;;;;5038117;28;20103;-78
2023/07/23 12:52:07;;;;;;;6.95;5.90;;;;;;;;;;5029431;28;20050;-79
2023/07/23 12:54:34;;;;;;;6.50;5.90;;;31.80;37.90;;;;;;5020108;28;20022;-79
2023/07/23 12:57:01;;;;;;;6.03;5.40;;;32.10;38.50;;;;;;5026264;28;20036;-79
2023/07/23 12:59:27;;;;;;;6.20;5.60;;;32.30;37.80;;;;;;5029298;28;20045;-78
2023/07/23 13:01:53;;;;;;;6.32;5.35;;;32.50;38.10;;;;;;5038616;28;20018;-78
2023/07/23 13:04:19;;;;;;;5.70;5.20;;;32.60;38.00;;;;;;5042990;28;20025;-78